sensor_id;sensor_type;location;lat;lon;timestamp;P1;durP1;ratioP1;P2;durP2;ratioP2
11747;SDS011;5931;48.832;9.072;2023-08-01T00:00:05;2.90;;;2.30;;
11747;SDS011;5931;48.832;9.072;2023-08-01T00:02:38;5.53;;;2.60;;
11747;SDS011;5931;48.832;9.072;2023-08-01T00:05:07;8.23;;;3.03;;
11747;SDS011;5931;48.832;9.072;2023-08-01T00:07:33;4.70;;;2.53;;
11747;SDS011;5931;48.832;9.072;2023-08-01T00:09:59;5.60;;;2.90;;
11747;SDS011;5931;48.832;9.072;2023-08-01T00:12:25;2.90;;;2.47;;
11747;SDS011;5931;48.832;9.072;2023-08-01T00:14:50;4.70;;;2.67;;
11747;SDS011;5931;48.832;9.072;2023-08-01T00:17:16;5.50;;;2.80;;
11747;SDS011;5931;48.832;9.072;2023-08-01T00:19:42;4.40;;;2.43;;
11747;SDS011;5931;48.832;9.072;2023-08-01T00:22:08;6.40;;;2.57;;
11747;SDS011;5931;48.832;9.072;2023-08-01T00:24:33;3.53;;;2.63;;
11747;SDS011;5931;48.832;9.072;2023-08-01T00:27:00;4.70;;;2.80;;
11747;SDS011;5931;48.832;9.072;2023-08-01T00:29:26;4.23;;;2.33;;
11747;SDS011;5931;48.832;9.072;2023-08-01T00:31:51;2.73;;;2.30;;
11747;SDS011;5931;48.832;9.072;2023-08-01T00:34:17;3.20;;;2.67;;
11747;SDS011;5931;48.832;9.072;2023-08-01T00:36:43;3.73;;;2.37;;
11747;SDS011;5931;48.832;9.072;2023-08-01T00:39:08;3.53;;;2.40;;
11747;SDS011;5931;48.832;9.072;2023-08-01T00:41:34;2.50;;;2.20;;
11747;SDS011;5931;48.832;9.072;2023-08-01T00:44:00;4.33;;;2.43;;
11747;SDS011;5931;48.832;9.072;2023-08-01T00:46:26;4.23;;;2.50;;
11747;SDS011;5931;48.832;9.072;2023-08-01T00:48:52;4.47;;;2.50;;
11747;SDS011;5931;48.832;9.072;2023-08-01T00:51:22;5.97;;;2.83;;
11747;SDS011;5931;48.832;9.072;2023-08-01T00:53:49;6.20;;;2.77;;
11747;SDS011;5931;48.832;9.072;2023-08-01T00:56:16;4.43;;;2.70;;
11747;SDS011;5931;48.832;9.072;2023-08-01T00:58:44;5.57;;;2.40;;
11747;SDS011;5931;48.832;9.072;2023-08-01T01:01:09;4.53;;;2.60;;
11747;SDS011;5931;48.832;9.072;2023-08-01T01:03:36;2.90;;;2.27;;
11747;SDS011;5931;48.832;9.072;2023-08-01T01:08:51;4.60;;;2.67;;
11747;SDS011;5931;48.832;9.072;2023-08-01T01:11:18;4.60;;;2.43;;
11747;SDS011;5931;48.832;9.072;2023-08-01T01:13:44;4.77;;;2.80;;
11747;SDS011;5931;48.832;9.072;2023-08-01T01:16:10;3.80;;;2.40;;
11747;SDS011;5931;48.832;9.072;2023-08-01T01:18:36;5.33;;;2.17;;
11747;SDS011;5931;48.832;9.072;2023-08-01T01:21:01;5.00;;;2.37;;
11747;SDS011;5931;48.832;9.072;2023-08-01T01:23:27;5.03;;;2.60;;
11747;SDS011;5931;48.832;9.072;2023-08-01T01:25:53;5.53;;;3.20;;
11747;SDS011;5931;48.832;9.072;2023-08-01T01:28:21;4.83;;;2.17;;
11747;SDS011;5931;48.832;9.072;2023-08-01T01:30:48;2.33;;;2.13;;
11747;SDS011;5931;48.832;9.072;2023-08-01T01:33:15;4.57;;;2.53;;
11747;SDS011;5931;48.832;9.072;2023-08-01T01:35:41;2.70;;;2.07;;
11747;SDS011;5931;48.832;9.072;2023-08-01T01:38:07;4.00;;;2.60;;
11747;SDS011;5931;48.832;9.072;2023-08-01T01:40:33;3.70;;;2.50;;
11747;SDS011;5931;48.832;9.072;2023-08-01T01:42:59;4.13;;;3.20;;
11747;SDS011;5931;48.832;9.072;2023-08-01T01:45:25;3.40;;;2.63;;
11747;SDS011;5931;48.832;9.072;2023-08-01T01:47:51;5.37;;;2.33;;
11747;SDS011;5931;48.832;9.072;2023-08-01T01:50:17;6.37;;;2.90;;
11747;SDS011;5931;48.832;9.072;2023-08-01T01:52:46;4.00;;;2.70;;
11747;SDS011;5931;48.832;9.072;2023-08-01T01:55:12;4.47;;;2.57;;
11747;SDS011;5931;48.832;9.072;2023-08-01T01:57:39;4.20;;;2.80;;
11747;SDS011;5931;48.832;9.072;2023-08-01T02:00:05;4.50;;;2.50;;
11747;SDS011;5931;48.832;9.072;2023-08-01T02:02:38;5.43;;;2.80;;
11747;SDS011;5931;48.832;9.072;2023-08-01T02:05:03;6.87;;;2.97;;
11747;SDS011;5931;48.832;9.072;2023-08-01T02:07:29;4.43;;;2.80;;
11747;SDS011;5931;48.832;9.072;2023-08-01T02:09:55;4.10;;;2.57;;
11747;SDS011;5931;48.832;9.072;2023-08-01T02:12:21;3.80;;;2.23;;
11747;SDS011;5931;48.832;9.072;2023-08-01T02:14:47;3.70;;;2.83;;
11747;SDS011;5931;48.832;9.072;2023-08-01T02:17:12;4.97;;;3.10;;
11747;SDS011;5931;48.832;9.072;2023-08-01T02:19:38;6.93;;;3.80;;
11747;SDS011;5931;48.832;9.072;2023-08-01T02:22:04;5.37;;;3.20;;
11747;SDS011;5931;48.832;9.072;2023-08-01T02:24:30;3.83;;;2.43;;
11747;SDS011;5931;48.832;9.072;2023-08-01T02:26:55;3.90;;;2.77;;
11747;SDS011;5931;48.832;9.072;2023-08-01T02:29:21;3.33;;;2.60;;
11747;SDS011;5931;48.832;9.072;2023-08-01T02:31:47;5.20;;;2.70;;
11747;SDS011;5931;48.832;9.072;2023-08-01T02:34:12;6.27;;;3.13;;
11747;SDS011;5931;48.832;9.072;2023-08-01T02:36:38;4.03;;;2.83;;
11747;SDS011;5931;48.832;9.072;2023-08-01T02:39:05;4.60;;;3.07;;
11747;SDS011;5931;48.832;9.072;2023-08-01T02:41:31;5.80;;;3.00;;
11747;SDS011;5931;48.832;9.072;2023-08-01T02:43:57;4.40;;;3.03;;
11747;SDS011;5931;48.832;9.072;2023-08-01T02:46:23;4.33;;;2.90;;
11747;SDS011;5931;48.832;9.072;2023-08-01T02:48:49;4.80;;;2.60;;
11747;SDS011;5931;48.832;9.072;2023-08-01T02:51:14;3.90;;;2.60;;
11747;SDS011;5931;48.832;9.072;2023-08-01T02:53:40;6.27;;;2.83;;
11747;SDS011;5931;48.832;9.072;2023-08-01T02:56:06;4.30;;;3.23;;
11747;SDS011;5931;48.832;9.072;2023-08-01T02:58:35;4.30;;;2.60;;
11747;SDS011;5931;48.832;9.072;2023-08-01T03:01:01;3.77;;;2.73;;
11747;SDS011;5931;48.832;9.072;2023-08-01T03:03:32;7.27;;;3.10;;
11747;SDS011;5931;48.832;9.072;2023-08-01T03:05:57;7.47;;;2.90;;
11747;SDS011;5931;48.832;9.072;2023-08-01T03:08:23;5.10;;;3.40;;
11747;SDS011;5931;48.832;9.072;2023-08-01T03:10:50;5.33;;;3.63;;
11747;SDS011;5931;48.832;9.072;2023-08-01T03:13:15;3.27;;;2.70;;
11747;SDS011;5931;48.832;9.072;2023-08-01T03:15:41;4.80;;;2.80;;
11747;SDS011;5931;48.832;9.072;2023-08-01T03:18:06;6.20;;;3.30;;
11747;SDS011;5931;48.832;9.072;2023-08-01T03:20:33;5.03;;;3.03;;
11747;SDS011;5931;48.832;9.072;2023-08-01T03:22:59;4.80;;;2.73;;
11747;SDS011;5931;48.832;9.072;2023-08-01T03:25:24;5.07;;;3.10;;
11747;SDS011;5931;48.832;9.072;2023-08-01T03:27:50;3.63;;;2.57;;
11747;SDS011;5931;48.832;9.072;2023-08-01T03:30:15;2.97;;;2.60;;
11747;SDS011;5931;48.832;9.072;2023-08-01T03:32:41;5.40;;;3.07;;
11747;SDS011;5931;48.832;9.072;2023-08-01T03:35:07;6.53;;;2.80;;
11747;SDS011;5931;48.832;9.072;2023-08-01T03:37:33;7.60;;;2.60;;
11747;SDS011;5931;48.832;9.072;2023-08-01T03:39:58;3.50;;;2.90;;
11747;SDS011;5931;48.832;9.072;2023-08-01T03:42:24;4.47;;;3.10;;
11747;SDS011;5931;48.832;9.072;2023-08-01T03:44:49;4.27;;;2.77;;
11747;SDS011;5931;48.832;9.072;2023-08-01T03:47:15;4.33;;;2.50;;
11747;SDS011;5931;48.832;9.072;2023-08-01T03:49:41;3.83;;;2.40;;
11747;SDS011;5931;48.832;9.072;2023-08-01T03:52:06;3.87;;;2.57;;
11747;SDS011;5931;48.832;9.072;2023-08-01T03:54:32;3.80;;;2.47;;
11747;SDS011;5931;48.832;9.072;2023-08-01T03:56:58;4.00;;;2.23;;
11747;SDS011;5931;48.832;9.072;2023-08-01T03:59:23;3.87;;;2.13;;
11747;SDS011;5931;48.832;9.072;2023-08-01T04:01:51;3.27;;;2.30;;
11747;SDS011;5931;48.832;9.072;2023-08-01T04:04:16;3.90;;;1.90;;
11747;SDS011;5931;48.832;9.072;2023-08-01T04:06:42;2.90;;;2.00;;
11747;SDS011;5931;48.832;9.072;2023-08-01T04:09:08;4.70;;;2.53;;
11747;SDS011;5931;48.832;9.072;2023-08-01T04:11:33;4.97;;;2.40;;
11747;SDS011;5931;48.832;9.072;2023-08-01T04:13:59;4.00;;;2.10;;
11747;SDS011;5931;48.832;9.072;2023-08-01T04:16:25;4.53;;;2.20;;
11747;SDS011;5931;48.832;9.072;2023-08-01T04:18:50;4.10;;;2.60;;
11747;SDS011;5931;48.832;9.072;2023-08-01T04:21:16;4.90;;;2.37;;
11747;SDS011;5931;48.832;9.072;2023-08-01T04:23:43;4.93;;;2.23;;
11747;SDS011;5931;48.832;9.072;2023-08-01T04:26:08;3.03;;;2.43;;
11747;SDS011;5931;48.832;9.072;2023-08-01T04:28:34;3.43;;;2.43;;
11747;SDS011;5931;48.832;9.072;2023-08-01T04:31:00;6.67;;;2.60;;
11747;SDS011;5931;48.832;9.072;2023-08-01T04:33:25;3.83;;;2.27;;
11747;SDS011;5931;48.832;9.072;2023-08-01T04:35:51;4.37;;;2.80;;
11747;SDS011;5931;48.832;9.072;2023-08-01T04:38:17;5.23;;;2.23;;
11747;SDS011;5931;48.832;9.072;2023-08-01T04:40:43;2.67;;;2.03;;
11747;SDS011;5931;48.832;9.072;2023-08-01T04:43:09;3.80;;;2.27;;
11747;SDS011;5931;48.832;9.072;2023-08-01T04:45:35;2.00;;;1.80;;
11747;SDS011;5931;48.832;9.072;2023-08-01T04:48:01;5.73;;;1.93;;
11747;SDS011;5931;48.832;9.072;2023-08-01T04:50:27;2.80;;;1.90;;
11747;SDS011;5931;48.832;9.072;2023-08-01T04:52:53;3.13;;;2.03;;
11747;SDS011;5931;48.832;9.072;2023-08-01T04:55:18;3.60;;;2.03;;
11747;SDS011;5931;48.832;9.072;2023-08-01T04:57:44;3.70;;;2.70;;
11747;SDS011;5931;48.832;9.072;2023-08-01T05:00:10;2.90;;;1.70;;
11747;SDS011;5931;48.832;9.072;2023-08-01T05:02:36;3.83;;;2.40;;
11747;SDS011;5931;48.832;9.072;2023-08-01T05:05:02;3.33;;;2.03;;
11747;SDS011;5931;48.832;9.072;2023-08-01T05:07:29;4.10;;;1.67;;
11747;SDS011;5931;48.832;9.072;2023-08-01T05:09:55;2.00;;;1.80;;
11747;SDS011;5931;48.832;9.072;2023-08-01T05:12:20;1.93;;;1.40;;
11747;SDS011;5931;48.832;9.072;2023-08-01T05:14:46;6.50;;;2.30;;
11747;SDS011;5931;48.832;9.072;2023-08-01T05:17:12;2.13;;;1.83;;
11747;SDS011;5931;48.832;9.072;2023-08-01T05:19:38;4.80;;;2.20;;
11747;SDS011;5931;48.832;9.072;2023-08-01T05:22:04;3.10;;;1.80;;
11747;SDS011;5931;48.832;9.072;2023-08-01T05:24:29;2.80;;;2.20;;
11747;SDS011;5931;48.832;9.072;2023-08-01T05:26:55;3.80;;;2.10;;
11747;SDS011;5931;48.832;9.072;2023-08-01T05:29:21;2.70;;;1.80;;
11747;SDS011;5931;48.832;9.072;2023-08-01T05:31:46;2.73;;;2.07;;
11747;SDS011;5931;48.832;9.072;2023-08-01T05:34:12;2.67;;;1.93;;
11747;SDS011;5931;48.832;9.072;2023-08-01T05:36:38;3.47;;;2.20;;
11747;SDS011;5931;48.832;9.072;2023-08-01T05:39:03;3.50;;;2.50;;
11747;SDS011;5931;48.832;9.072;2023-08-01T05:41:29;3.97;;;2.57;;
11747;SDS011;5931;48.832;9.072;2023-08-01T05:43:55;4.50;;;2.25;;
11747;SDS011;5931;48.832;9.072;2023-08-01T05:46:21;5.00;;;2.17;;
11747;SDS011;5931;48.832;9.072;2023-08-01T05:48:47;2.23;;;2.00;;
11747;SDS011;5931;48.832;9.072;2023-08-01T05:51:12;3.50;;;2.30;;
11747;SDS011;5931;48.832;9.072;2023-08-01T05:53:38;4.63;;;2.13;;
11747;SDS011;5931;48.832;9.072;2023-08-01T05:56:04;5.63;;;2.50;;
11747;SDS011;5931;48.832;9.072;2023-08-01T05:58:30;3.90;;;2.47;;
11747;SDS011;5931;48.832;9.072;2023-08-01T06:00:56;3.50;;;1.90;;
11747;SDS011;5931;48.832;9.072;2023-08-01T06:03:21;3.33;;;2.30;;
11747;SDS011;5931;48.832;9.072;2023-08-01T06:05:48;3.40;;;2.50;;
11747;SDS011;5931;48.832;9.072;2023-08-01T06:08:14;5.17;;;2.60;;
11747;SDS011;5931;48.832;9.072;2023-08-01T06:10:40;3.67;;;2.30;;
11747;SDS011;5931;48.832;9.072;2023-08-01T06:13:06;3.17;;;2.27;;
11747;SDS011;5931;48.832;9.072;2023-08-01T06:15:33;3.50;;;2.50;;
11747;SDS011;5931;48.832;9.072;2023-08-01T06:17:58;8.63;;;3.17;;
11747;SDS011;5931;48.832;9.072;2023-08-01T06:20:24;3.90;;;2.30;;
11747;SDS011;5931;48.832;9.072;2023-08-01T06:22:50;2.80;;;2.00;;
11747;SDS011;5931;48.832;9.072;2023-08-01T06:25:16;4.27;;;2.57;;
11747;SDS011;5931;48.832;9.072;2023-08-01T06:27:41;3.90;;;2.40;;
11747;SDS011;5931;48.832;9.072;2023-08-01T06:30:07;2.73;;;2.20;;
11747;SDS011;5931;48.832;9.072;2023-08-01T06:32:33;4.67;;;2.23;;
11747;SDS011;5931;48.832;9.072;2023-08-01T06:34:59;4.00;;;2.50;;
11747;SDS011;5931;48.832;9.072;2023-08-01T06:37:24;3.67;;;2.33;;
11747;SDS011;5931;48.832;9.072;2023-08-01T06:39:50;4.63;;;2.77;;
11747;SDS011;5931;48.832;9.072;2023-08-01T06:42:15;4.00;;;2.50;;
11747;SDS011;5931;48.832;9.072;2023-08-01T06:44:41;4.87;;;3.10;;
11747;SDS011;5931;48.832;9.072;2023-08-01T06:47:07;3.57;;;3.13;;
11747;SDS011;5931;48.832;9.072;2023-08-01T06:49:33;7.40;;;3.00;;
11747;SDS011;5931;48.832;9.072;2023-08-01T06:51:58;4.77;;;2.90;;
11747;SDS011;5931;48.832;9.072;2023-08-01T06:54:24;6.23;;;3.37;;
11747;SDS011;5931;48.832;9.072;2023-08-01T06:56:50;6.00;;;2.80;;
11747;SDS011;5931;48.832;9.072;2023-08-01T06:59:16;5.57;;;3.27;;
11747;SDS011;5931;48.832;9.072;2023-08-01T07:01:42;4.73;;;3.83;;
11747;SDS011;5931;48.832;9.072;2023-08-01T07:04:09;9.00;;;3.20;;
11747;SDS011;5931;48.832;9.072;2023-08-01T07:06:35;6.03;;;4.00;;
11747;SDS011;5931;48.832;9.072;2023-08-01T07:09:01;7.20;;;3.70;;
11747;SDS011;5931;48.832;9.072;2023-08-01T07:11:27;7.23;;;3.80;;
11747;SDS011;5931;48.832;9.072;2023-08-01T07:13:52;5.63;;;3.33;;
11747;SDS011;5931;48.832;9.072;2023-08-01T07:16:18;4.97;;;3.30;;
11747;SDS011;5931;48.832;9.072;2023-08-01T07:18:44;5.60;;;3.40;;
11747;SDS011;5931;48.832;9.072;2023-08-01T07:21:10;5.50;;;3.27;;
11747;SDS011;5931;48.832;9.072;2023-08-01T07:23:36;6.13;;;3.10;;
11747;SDS011;5931;48.832;9.072;2023-08-01T07:26:01;6.20;;;3.57;;
11747;SDS011;5931;48.832;9.072;2023-08-01T07:28:27;4.27;;;2.70;;
11747;SDS011;5931;48.832;9.072;2023-08-01T07:30:59;4.77;;;2.70;;
11747;SDS011;5931;48.832;9.072;2023-08-01T07:33:30;5.20;;;2.97;;
11747;SDS011;5931;48.832;9.072;2023-08-01T07:35:56;3.63;;;2.70;;
11747;SDS011;5931;48.832;9.072;2023-08-01T07:38:22;5.77;;;3.10;;
11747;SDS011;5931;48.832;9.072;2023-08-01T07:40:48;4.60;;;3.00;;
11747;SDS011;5931;48.832;9.072;2023-08-01T07:43:14;7.50;;;3.17;;
11747;SDS011;5931;48.832;9.072;2023-08-01T07:45:40;6.43;;;2.90;;
11747;SDS011;5931;48.832;9.072;2023-08-01T07:48:06;7.00;;;2.67;;
11747;SDS011;5931;48.832;9.072;2023-08-01T07:50:31;5.00;;;2.67;;
11747;SDS011;5931;48.832;9.072;2023-08-01T07:52:57;3.87;;;2.30;;
11747;SDS011;5931;48.832;9.072;2023-08-01T07:55:23;4.57;;;2.23;;
11747;SDS011;5931;48.832;9.072;2023-08-01T07:57:49;2.57;;;2.00;;
11747;SDS011;5931;48.832;9.072;2023-08-01T08:00:14;5.53;;;2.70;;
11747;SDS011;5931;48.832;9.072;2023-08-01T08:02:41;2.70;;;2.20;;
11747;SDS011;5931;48.832;9.072;2023-08-01T08:05:07;2.83;;;2.00;;
11747;SDS011;5931;48.832;9.072;2023-08-01T08:07:34;4.60;;;2.27;;
11747;SDS011;5931;48.832;9.072;2023-08-01T08:09:59;3.30;;;2.37;;
11747;SDS011;5931;48.832;9.072;2023-08-01T08:12:25;1.93;;;1.73;;
11747;SDS011;5931;48.832;9.072;2023-08-01T08:14:51;2.73;;;1.80;;
11747;SDS011;5931;48.832;9.072;2023-08-01T08:17:16;3.67;;;1.60;;
11747;SDS011;5931;48.832;9.072;2023-08-01T08:19:42;5.83;;;1.77;;
11747;SDS011;5931;48.832;9.072;2023-08-01T08:22:07;5.73;;;2.50;;
11747;SDS011;5931;48.832;9.072;2023-08-01T08:24:33;3.50;;;2.10;;
11747;SDS011;5931;48.832;9.072;2023-08-01T08:26:59;3.73;;;2.07;;
11747;SDS011;5931;48.832;9.072;2023-08-01T08:29:24;2.97;;;1.97;;
11747;SDS011;5931;48.832;9.072;2023-08-01T08:31:50;3.00;;;1.77;;
11747;SDS011;5931;48.832;9.072;2023-08-01T08:34:15;3.27;;;1.83;;
11747;SDS011;5931;48.832;9.072;2023-08-01T08:36:41;2.33;;;2.00;;
11747;SDS011;5931;48.832;9.072;2023-08-01T08:39:07;2.10;;;1.60;;
11747;SDS011;5931;48.832;9.072;2023-08-01T08:41:45;2.50;;;1.53;;
11747;SDS011;5931;48.832;9.072;2023-08-01T08:44:15;1.83;;;1.33;;
11747;SDS011;5931;48.832;9.072;2023-08-01T08:46:42;2.90;;;1.47;;
11747;SDS011;5931;48.832;9.072;2023-08-01T08:49:10;3.20;;;1.67;;
11747;SDS011;5931;48.832;9.072;2023-08-01T08:51:37;1.70;;;1.60;;
11747;SDS011;5931;48.832;9.072;2023-08-01T08:54:06;3.27;;;2.03;;
11747;SDS011;5931;48.832;9.072;2023-08-01T08:56:33;2.37;;;1.60;;
11747;SDS011;5931;48.832;9.072;2023-08-01T08:59:00;2.07;;;1.60;;
11747;SDS011;5931;48.832;9.072;2023-08-01T09:01:26;2.53;;;1.33;;
11747;SDS011;5931;48.832;9.072;2023-08-01T09:03:52;1.70;;;1.30;;
11747;SDS011;5931;48.832;9.072;2023-08-01T09:06:24;1.90;;;1.30;;
11747;SDS011;5931;48.832;9.072;2023-08-01T09:08:55;1.53;;;1.30;;
11747;SDS011;5931;48.832;9.072;2023-08-01T09:11:27;1.80;;;1.30;;
11747;SDS011;5931;48.832;9.072;2023-08-01T09:13:52;2.40;;;1.30;;
11747;SDS011;5931;48.832;9.072;2023-08-01T09:16:18;1.47;;;1.23;;
11747;SDS011;5931;48.832;9.072;2023-08-01T09:18:51;1.80;;;1.20;;
11747;SDS011;5931;48.832;9.072;2023-08-01T09:21:18;2.57;;;1.40;;
11747;SDS011;5931;48.832;9.072;2023-08-01T09:23:44;1.30;;;1.00;;
11747;SDS011;5931;48.832;9.072;2023-08-01T09:26:14;2.27;;;1.37;;
11747;SDS011;5931;48.832;9.072;2023-08-01T09:28:40;1.53;;;1.20;;
11747;SDS011;5931;48.832;9.072;2023-08-01T09:31:06;3.10;;;1.70;;
11747;SDS011;5931;48.832;9.072;2023-08-01T09:33:38;1.50;;;1.20;;
11747;SDS011;5931;48.832;9.072;2023-08-01T09:36:05;1.37;;;1.10;;
11747;SDS011;5931;48.832;9.072;2023-08-01T09:38:33;1.70;;;1.20;;
11747;SDS011;5931;48.832;9.072;2023-08-01T09:41:00;1.50;;;1.30;;
11747;SDS011;5931;48.832;9.072;2023-08-01T09:43:32;1.77;;;1.30;;
11747;SDS011;5931;48.832;9.072;2023-08-01T09:46:00;2.03;;;1.27;;
11747;SDS011;5931;48.832;9.072;2023-08-01T09:48:27;2.37;;;1.37;;
11747;SDS011;5931;48.832;9.072;2023-08-01T09:51:06;2.33;;;1.40;;
11747;SDS011;5931;48.832;9.072;2023-08-01T09:53:33;1.63;;;1.10;;
11747;SDS011;5931;48.832;9.072;2023-08-01T09:55:59;1.43;;;1.30;;
11747;SDS011;5931;48.832;9.072;2023-08-01T09:58:28;1.20;;;0.90;;
11747;SDS011;5931;48.832;9.072;2023-08-01T10:00:57;1.53;;;1.30;;
11747;SDS011;5931;48.832;9.072;2023-08-01T10:03:23;1.37;;;1.10;;
11747;SDS011;5931;48.832;9.072;2023-08-01T10:05:50;1.80;;;1.30;;
11747;SDS011;5931;48.832;9.072;2023-08-01T10:08:18;1.13;;;0.93;;
11747;SDS011;5931;48.832;9.072;2023-08-01T10:10:44;1.20;;;0.93;;
11747;SDS011;5931;48.832;9.072;2023-08-01T10:13:12;1.23;;;0.90;;
11747;SDS011;5931;48.832;9.072;2023-08-01T10:15:38;1.30;;;1.20;;
11747;SDS011;5931;48.832;9.072;2023-08-01T10:18:05;1.37;;;1.00;;
11747;SDS011;5931;48.832;9.072;2023-08-01T10:20:31;2.70;;;1.00;;
11747;SDS011;5931;48.832;9.072;2023-08-01T10:22:57;1.17;;;0.90;;
11747;SDS011;5931;48.832;9.072;2023-08-01T10:25:23;1.40;;;0.90;;
11747;SDS011;5931;48.832;9.072;2023-08-01T10:28:00;3.10;;;1.10;;
11747;SDS011;5931;48.832;9.072;2023-08-01T10:30:27;1.30;;;1.00;;
11747;SDS011;5931;48.832;9.072;2023-08-01T10:32:57;1.40;;;1.00;;
11747;SDS011;5931;48.832;9.072;2023-08-01T10:35:36;1.10;;;1.00;;
11747;SDS011;5931;48.832;9.072;2023-08-01T10:38:10;1.20;;;1.00;;
11747;SDS011;5931;48.832;9.072;2023-08-01T10:40:40;1.20;;;1.00;;
11747;SDS011;5931;48.832;9.072;2023-08-01T10:43:23;1.50;;;1.17;;
11747;SDS011;5931;48.832;9.072;2023-08-01T10:46:02;1.30;;;1.03;;
11747;SDS011;5931;48.832;9.072;2023-08-01T10:48:28;1.33;;;0.93;;
11747;SDS011;5931;48.832;9.072;2023-08-01T10:50:57;1.50;;;1.10;;
11747;SDS011;5931;48.832;9.072;2023-08-01T10:53:23;1.50;;;1.20;;
11747;SDS011;5931;48.832;9.072;2023-08-01T10:55:49;1.97;;;1.10;;
11747;SDS011;5931;48.832;9.072;2023-08-01T10:58:15;1.33;;;1.00;;
11747;SDS011;5931;48.832;9.072;2023-08-01T11:00:42;1.37;;;1.00;;
11747;SDS011;5931;48.832;9.072;2023-08-01T11:03:08;1.30;;;1.00;;
11747;SDS011;5931;48.832;9.072;2023-08-01T11:05:33;1.33;;;1.10;;
11747;SDS011;5931;48.832;9.072;2023-08-01T11:08:00;1.60;;;1.30;;
11747;SDS011;5931;48.832;9.072;2023-08-01T11:10:30;1.43;;;0.90;;
11747;SDS011;5931;48.832;9.072;2023-08-01T11:12:57;2.07;;;1.20;;
11747;SDS011;5931;48.832;9.072;2023-08-01T11:15:24;1.77;;;1.10;;
11747;SDS011;5931;48.832;9.072;2023-08-01T11:17:51;1.30;;;1.00;;
11747;SDS011;5931;48.832;9.072;2023-08-01T11:20:19;1.50;;;1.17;;
11747;SDS011;5931;48.832;9.072;2023-08-01T11:22:51;1.53;;;1.10;;
11747;SDS011;5931;48.832;9.072;2023-08-01T11:25:20;1.50;;;1.10;;
11747;SDS011;5931;48.832;9.072;2023-08-01T11:28:10;2.27;;;1.50;;
11747;SDS011;5931;48.832;9.072;2023-08-01T11:30:37;2.13;;;1.37;;
11747;SDS011;5931;48.832;9.072;2023-08-01T11:33:24;1.50;;;1.20;;
11747;SDS011;5931;48.832;9.072;2023-08-01T11:38:21;3.30;;;2.50;;
11747;SDS011;5931;48.832;9.072;2023-08-01T11:40:49;3.87;;;1.50;;
11747;SDS011;5931;48.832;9.072;2023-08-01T11:43:16;1.60;;;1.17;;
11747;SDS011;5931;48.832;9.072;2023-08-01T11:45:51;2.03;;;1.20;;
11747;SDS011;5931;48.832;9.072;2023-08-01T11:48:20;2.70;;;1.50;;
11747;SDS011;5931;48.832;9.072;2023-08-01T11:50:47;1.50;;;1.20;;
11747;SDS011;5931;48.832;9.072;2023-08-01T11:53:22;1.80;;;1.63;;
11747;SDS011;5931;48.832;9.072;2023-08-01T11:55:48;1.83;;;1.43;;
11747;SDS011;5931;48.832;9.072;2023-08-01T11:58:27;1.57;;;1.10;;
11747;SDS011;5931;48.832;9.072;2023-08-01T12:03:42;1.70;;;1.50;;
11747;SDS011;5931;48.832;9.072;2023-08-01T12:06:11;1.60;;;1.20;;
11747;SDS011;5931;48.832;9.072;2023-08-01T12:08:42;1.40;;;1.20;;
11747;SDS011;5931;48.832;9.072;2023-08-01T12:11:24;1.60;;;1.27;;
11747;SDS011;5931;48.832;9.072;2023-08-01T12:16:35;1.40;;;1.13;;
11747;SDS011;5931;48.832;9.072;2023-08-01T12:19:02;1.50;;;1.10;;
11747;SDS011;5931;48.832;9.072;2023-08-01T12:21:28;2.70;;;1.23;;
11747;SDS011;5931;48.832;9.072;2023-08-01T12:23:54;1.90;;;1.30;;
11747;SDS011;5931;48.832;9.072;2023-08-01T12:26:20;1.40;;;1.07;;
11747;SDS011;5931;48.832;9.072;2023-08-01T12:28:46;2.03;;;1.63;;
11747;SDS011;5931;48.832;9.072;2023-08-01T12:31:15;2.10;;;1.50;;
11747;SDS011;5931;48.832;9.072;2023-08-01T12:33:44;3.47;;;1.30;;
11747;SDS011;5931;48.832;9.072;2023-08-01T12:36:11;2.03;;;1.40;;
11747;SDS011;5931;48.832;9.072;2023-08-01T12:38:37;1.70;;;1.60;;
11747;SDS011;5931;48.832;9.072;2023-08-01T12:41:03;1.77;;;1.23;;
11747;SDS011;5931;48.832;9.072;2023-08-01T12:43:29;2.47;;;1.27;;
11747;SDS011;5931;48.832;9.072;2023-08-01T12:45:55;1.90;;;1.13;;
11747;SDS011;5931;48.832;9.072;2023-08-01T12:48:23;1.43;;;1.20;;
11747;SDS011;5931;48.832;9.072;2023-08-01T12:50:49;2.33;;;1.40;;
11747;SDS011;5931;48.832;9.072;2023-08-01T12:53:15;2.03;;;1.20;;
11747;SDS011;5931;48.832;9.072;2023-08-01T12:55:47;2.40;;;1.53;;
11747;SDS011;5931;48.832;9.072;2023-08-01T12:58:15;2.10;;;1.50;;
11747;SDS011;5931;48.832;9.072;2023-08-01T13:00:41;2.00;;;1.20;;
11747;SDS011;5931;48.832;9.072;2023-08-01T13:03:08;2.00;;;1.50;;
11747;SDS011;5931;48.832;9.072;2023-08-01T13:05:34;1.60;;;1.30;;
11747;SDS011;5931;48.832;9.072;2023-08-01T13:08:00;2.23;;;1.50;;
11747;SDS011;5931;48.832;9.072;2023-08-01T13:10:29;1.90;;;1.20;;
11747;SDS011;5931;48.832;9.072;2023-08-01T13:12:55;2.33;;;1.80;;
11747;SDS011;5931;48.832;9.072;2023-08-01T13:15:21;1.87;;;1.23;;
11747;SDS011;5931;48.832;9.072;2023-08-01T13:17:46;2.93;;;1.50;;
11747;SDS011;5931;48.832;9.072;2023-08-01T13:20:12;2.03;;;1.40;;
11747;SDS011;5931;48.832;9.072;2023-08-01T13:22:38;1.67;;;1.37;;
11747;SDS011;5931;48.832;9.072;2023-08-01T13:25:03;2.37;;;1.33;;
11747;SDS011;5931;48.832;9.072;2023-08-01T13:27:31;2.20;;;1.67;;
11747;SDS011;5931;48.832;9.072;2023-08-01T13:29:59;1.63;;;1.20;;
11747;SDS011;5931;48.832;9.072;2023-08-01T13:32:25;1.90;;;1.40;;
11747;SDS011;5931;48.832;9.072;2023-08-01T13:34:50;3.50;;;1.27;;
11747;SDS011;5931;48.832;9.072;2023-08-01T13:37:16;2.37;;;1.30;;
11747;SDS011;5931;48.832;9.072;2023-08-01T13:39:42;1.47;;;1.33;;
11747;SDS011;5931;48.832;9.072;2023-08-01T13:42:07;1.70;;;1.60;;
11747;SDS011;5931;48.832;9.072;2023-08-01T13:44:33;1.80;;;1.30;;
11747;SDS011;5931;48.832;9.072;2023-08-01T13:46:59;2.40;;;1.40;;
11747;SDS011;5931;48.832;9.072;2023-08-01T13:49:25;2.53;;;1.37;;
11747;SDS011;5931;48.832;9.072;2023-08-01T13:51:50;1.40;;;1.23;;
11747;SDS011;5931;48.832;9.072;2023-08-01T13:54:16;4.20;;;1.40;;
11747;SDS011;5931;48.832;9.072;2023-08-01T13:56:42;1.50;;;1.30;;
11747;SDS011;5931;48.832;9.072;2023-08-01T13:59:07;2.17;;;1.43;;
11747;SDS011;5931;48.832;9.072;2023-08-01T14:01:34;1.43;;;1.20;;
11747;SDS011;5931;48.832;9.072;2023-08-01T14:04:00;2.30;;;1.50;;
11747;SDS011;5931;48.832;9.072;2023-08-01T14:06:26;1.63;;;1.33;;
11747;SDS011;5931;48.832;9.072;2023-08-01T14:08:51;3.83;;;1.40;;
11747;SDS011;5931;48.832;9.072;2023-08-01T14:11:17;1.57;;;1.47;;
11747;SDS011;5931;48.832;9.072;2023-08-01T14:13:43;2.13;;;1.33;;
11747;SDS011;5931;48.832;9.072;2023-08-01T14:16:09;2.33;;;1.20;;
11747;SDS011;5931;48.832;9.072;2023-08-01T14:18:34;1.50;;;1.40;;
11747;SDS011;5931;48.832;9.072;2023-08-01T14:21:00;1.80;;;1.40;;
11747;SDS011;5931;48.832;9.072;2023-08-01T14:23:26;2.23;;;1.67;;
11747;SDS011;5931;48.832;9.072;2023-08-01T14:25:52;3.10;;;1.40;;
11747;SDS011;5931;48.832;9.072;2023-08-01T14:28:18;2.20;;;1.53;;
11747;SDS011;5931;48.832;9.072;2023-08-01T14:30:44;2.67;;;1.43;;
11747;SDS011;5931;48.832;9.072;2023-08-01T14:33:09;2.10;;;1.23;;
11747;SDS011;5931;48.832;9.072;2023-08-01T14:35:36;2.53;;;1.50;;
11747;SDS011;5931;48.832;9.072;2023-08-01T14:38:02;1.67;;;1.30;;
11747;SDS011;5931;48.832;9.072;2023-08-01T14:40:28;1.63;;;1.33;;
11747;SDS011;5931;48.832;9.072;2023-08-01T14:42:54;4.53;;;1.63;;
11747;SDS011;5931;48.832;9.072;2023-08-01T14:45:20;2.57;;;1.40;;
11747;SDS011;5931;48.832;9.072;2023-08-01T14:47:46;2.40;;;1.23;;
11747;SDS011;5931;48.832;9.072;2023-08-01T14:50:13;2.27;;;1.50;;
11747;SDS011;5931;48.832;9.072;2023-08-01T14:52:39;2.47;;;1.40;;
11747;SDS011;5931;48.832;9.072;2023-08-01T14:55:06;1.80;;;1.17;;
11747;SDS011;5931;48.832;9.072;2023-08-01T14:57:32;1.20;;;1.10;;
11747;SDS011;5931;48.832;9.072;2023-08-01T14:59:58;1.40;;;1.30;;
11747;SDS011;5931;48.832;9.072;2023-08-01T15:02:24;2.40;;;1.50;;
11747;SDS011;5931;48.832;9.072;2023-08-01T15:04:51;1.37;;;1.20;;
11747;SDS011;5931;48.832;9.072;2023-08-01T15:07:24;2.50;;;1.30;;